createdAt,value
2022-11-04T00:00:51.500Z,8.13
2022-11-04T00:03:21.609Z,5.85
2022-11-04T00:08:26.491Z,6.83
2022-11-04T00:11:16.150Z,8.53
2022-11-04T00:13:44.532Z,8.03
2022-11-04T00:18:48.871Z,9.45
2022-11-04T00:21:35.372Z,11.35
2022-11-04T00:24:22.046Z,10.08
2022-11-04T00:29:28.257Z,7.90
2022-11-04T00:34:30.549Z,5.87
2022-11-04T00:39:34.519Z,7.15
2022-11-04T00:44:38.422Z,7.70
2022-11-04T00:49:42.422Z,8.00
2022-11-04T00:52:10.771Z,7.12
2022-11-04T00:57:14.727Z,7.53
2022-11-04T00:59:43.084Z,6.60
2022-11-04T01:04:48.135Z,7.22
2022-11-04T01:07:16.517Z,8.40
2022-11-04T01:12:20.437Z,8.28
2022-11-04T01:14:49.080Z,6.92
2022-11-04T01:17:17.667Z,8.45
2022-11-04T01:22:21.586Z,9.73
2022-11-04T01:24:49.950Z,9.30
2022-11-04T01:29:53.938Z,8.23
2022-11-04T01:34:57.871Z,10.25
2022-11-04T01:40:01.860Z,7.42
2022-11-04T01:45:06.974Z,9.05
2022-11-04T01:50:12.129Z,8.73
2022-11-04T01:55:16.585Z,8.15
2022-11-04T02:00:20.929Z,8.58
2022-11-04T02:05:26.720Z,7.42
2022-11-04T02:10:30.833Z,6.12
2022-11-04T02:12:59.185Z,7.85
2022-11-04T02:18:22.547Z,7.12
2022-11-04T02:23:42.234Z,7.87
2022-11-04T02:26:24.553Z,10.98
2022-11-04T02:31:41.365Z,7.28
2022-11-04T02:34:10.001Z,8.08
2022-11-04T02:36:38.542Z,7.75
2022-11-04T02:41:42.877Z,7.25
2022-11-04T02:44:12.988Z,7.40
2022-11-04T02:49:17.099Z,6.50
2022-11-04T02:54:22.075Z,6.15
2022-11-04T02:56:50.528Z,6.20
2022-11-04T03:01:54.686Z,6.00
2022-11-04T03:04:22.987Z,5.87
2022-11-04T03:09:26.958Z,6.10
2022-11-04T03:14:33.595Z,6.53
2022-11-04T03:16:59.533Z,6.17
2022-11-04T03:22:03.710Z,4.37
2022-11-04T03:27:09.370Z,5.65
2022-11-04T03:32:14.263Z,4.28
2022-11-04T03:37:15.613Z,5.05
2022-11-04T03:42:24.612Z,5.10
2022-11-04T03:47:26.180Z,3.85
2022-11-04T03:52:33.053Z,2.83
2022-11-04T03:57:36.630Z,3.50
2022-11-04T04:02:59.497Z,4.17
2022-11-04T04:05:28.292Z,4.72
2022-11-04T04:10:39.574Z,4.47
2022-11-04T04:13:09.350Z,5.37
2022-11-04T04:15:37.736Z,4.30
2022-11-04T04:20:41.716Z,5.22
2022-11-04T04:26:03.514Z,5.78
2022-11-04T04:31:07.489Z,8.15
2022-11-04T04:33:35.923Z,5.90
2022-11-04T04:36:04.722Z,5.08
2022-11-04T04:41:27.056Z,6.20
2022-11-04T04:44:13.247Z,5.65
2022-11-04T04:46:41.620Z,7.65
2022-11-04T04:51:47.861Z,6.10
2022-11-04T04:56:52.045Z,7.78
2022-11-04T05:01:53.727Z,6.67
2022-11-04T05:04:21.968Z,6.33
2022-11-04T05:06:50.325Z,7.12
2022-11-04T05:11:54.275Z,6.80
2022-11-04T05:16:58.164Z,6.33
2022-11-04T05:22:02.068Z,6.30
2022-11-04T05:24:30.444Z,6.00
2022-11-04T05:29:34.371Z,7.10
2022-11-04T05:34:38.274Z,6.90
2022-11-04T05:39:42.216Z,7.03
2022-11-04T05:44:46.168Z,7.67
2022-11-04T05:52:25.660Z,8.83
2022-11-04T05:54:54.035Z,8.03
2022-11-04T05:59:58.530Z,8.08
2022-11-04T06:05:02.570Z,8.68
2022-11-04T06:07:30.924Z,8.63
2022-11-04T06:12:34.846Z,8.93
2022-11-04T06:17:38.738Z,8.43
2022-11-04T06:22:43.289Z,7.12
2022-11-04T06:27:47.216Z,7.80
2022-11-04T06:32:51.225Z,7.75
2022-11-04T06:40:31.920Z,7.53
2022-11-04T06:43:00.857Z,8.85
2022-11-04T06:45:29.189Z,7.35
2022-11-04T06:50:33.186Z,7.20
2022-11-04T06:53:03.897Z,8.48
2022-11-04T06:55:29.950Z,8.78
2022-11-04T06:57:58.329Z,7.87
2022-11-04T07:00:27.028Z,10.05
2022-11-04T07:05:31.517Z,8.78
2022-11-04T07:10:35.469Z,8.00
2022-11-04T07:15:39.816Z,9.10
2022-11-04T07:18:08.497Z,7.55
2022-11-04T07:20:37.525Z,8.23
2022-11-04T07:25:41.437Z,8.68
2022-11-04T07:28:10.075Z,7.95
2022-11-04T07:30:38.143Z,9.18
2022-11-04T07:35:42.586Z,8.43
2022-11-04T07:38:11.255Z,10.95
2022-11-04T07:40:41.785Z,10.03
2022-11-04T07:45:43.305Z,9.20
2022-11-04T07:48:12.036Z,9.10
2022-11-04T07:50:43.148Z,10.05
2022-11-04T07:53:09.112Z,8.43
2022-11-04T07:55:43.174Z,9.05
2022-11-04T08:00:42.730Z,10.08
2022-11-04T08:03:11.515Z,9.95
2022-11-04T08:08:17.490Z,9.58
2022-11-04T08:10:43.376Z,8.18
2022-11-04T08:15:49.944Z,11.43
2022-11-04T08:18:15.693Z,10.72
2022-11-04T08:20:48.434Z,7.50
2022-11-04T08:23:16.982Z,6.83
2022-11-04T08:25:45.314Z,9.10
2022-11-04T08:30:55.497Z,8.90
2022-11-04T08:35:50.816Z,8.65
2022-11-04T08:38:19.208Z,8.90
2022-11-04T08:40:47.557Z,7.65
2022-11-04T08:45:51.477Z,9.85
2022-11-04T08:48:19.833Z,8.65
2022-11-04T08:50:49.875Z,10.48
2022-11-04T08:55:53.844Z,9.50
2022-11-04T08:58:22.170Z,11.45
2022-11-04T09:00:50.771Z,6.85
2022-11-04T09:05:54.685Z,9.68
2022-11-04T09:08:23.013Z,7.70
2022-11-04T09:10:51.372Z,6.70
2022-11-04T09:15:55.338Z,9.20
2022-11-04T09:18:23.703Z,9.95
2022-11-04T09:20:52.087Z,8.88
2022-11-04T09:25:56.296Z,7.95
2022-11-04T09:28:24.669Z,11.97
2022-11-04T09:30:55.494Z,8.58
2022-11-04T09:35:57.075Z,9.68
2022-11-04T09:38:25.419Z,9.70
2022-11-04T09:40:53.775Z,8.70
2022-11-04T09:46:01.429Z,9.78
2022-11-04T09:48:29.978Z,9.05
2022-11-04T09:50:58.505Z,8.03
2022-11-04T09:56:05.642Z,7.28
2022-11-04T09:58:32.090Z,7.70
2022-11-04T10:01:02.312Z,6.87
2022-11-04T10:03:45.530Z,9.15
2022-11-04T10:08:56.343Z,6.78
2022-11-04T10:11:25.081Z,10.00
2022-11-04T10:16:33.873Z,6.67
2022-11-04T10:19:07.331Z,7.40
2022-11-04T10:24:19.076Z,6.80
2022-11-04T10:26:47.458Z,8.35
2022-11-04T10:29:19.030Z,8.30
2022-11-04T10:34:24.068Z,6.62
2022-11-04T10:36:52.395Z,7.10
2022-11-04T10:39:22.053Z,7.35
2022-11-04T10:44:26.380Z,6.67
2022-11-04T10:46:56.011Z,7.60
2022-11-04T10:49:38.299Z,5.17
2022-11-04T10:54:42.499Z,8.00
2022-11-04T10:57:11.322Z,5.50
2022-11-04T10:59:40.436Z,4.65
2022-11-04T11:04:44.873Z,6.15
2022-11-04T11:07:13.310Z,6.15
2022-11-04T11:09:44.393Z,7.17
2022-11-04T11:14:54.688Z,6.83
2022-11-04T11:17:23.771Z,7.15
2022-11-04T11:19:55.010Z,7.33
2022-11-04T11:22:30.925Z,5.25
2022-11-04T11:25:13.224Z,5.78
2022-11-04T11:30:22.135Z,6.15
2022-11-04T11:32:53.254Z,5.97
2022-11-04T11:35:21.813Z,7.92
2022-11-04T11:40:26.743Z,12.65
2022-11-04T11:42:55.061Z,6.40
2022-11-04T11:45:23.881Z,6.80
2022-11-04T11:47:53.681Z,10.32
2022-11-04T11:50:23.695Z,9.18
2022-11-04T11:52:52.196Z,6.35
2022-11-04T12:00:44.316Z,6.78
2022-11-04T12:10:50.338Z,6.08
2022-11-04T12:15:44.483Z,6.22
2022-11-04T12:18:16.093Z,7.85
2022-11-04T12:20:46.552Z,4.30
2022-11-04T12:25:53.560Z,6.65
2022-11-04T12:28:24.153Z,4.15
2022-11-04T12:30:53.736Z,4.78
2022-11-04T12:35:59.166Z,6.65
2022-11-04T12:38:33.501Z,5.30
2022-11-04T12:41:34.189Z,7.62
2022-11-04T12:43:30.605Z,4.47
2022-11-04T12:46:04.726Z,6.40
2022-11-04T12:48:45.143Z,6.28
2022-11-04T12:53:50.360Z,7.50
2022-11-04T12:56:18.700Z,5.58
2022-11-04T13:01:31.852Z,5.03
2022-11-04T13:06:33.221Z,6.00
2022-11-04T13:09:02.022Z,7.55
2022-11-04T13:11:30.543Z,8.70
2022-11-04T13:14:02.160Z,6.12
2022-11-04T13:16:28.012Z,5.87
2022-11-04T13:21:32.352Z,6.50
2022-11-04T13:24:00.693Z,5.72
2022-11-04T13:26:34.743Z,5.50
2022-11-04T13:31:40.897Z,5.55
2022-11-04T13:36:46.283Z,6.22
2022-11-04T13:39:15.116Z,7.58
2022-11-04T13:41:51.061Z,7.97
2022-11-04T13:44:19.398Z,6.95
2022-11-04T13:46:48.794Z,8.78
2022-11-04T13:52:01.733Z,5.78
2022-11-04T13:54:30.044Z,4.85
2022-11-04T13:57:07.593Z,5.72
2022-11-04T13:59:35.987Z,5.25
2022-11-04T14:02:24.275Z,4.33
2022-11-04T14:07:46.976Z,7.05
2022-11-04T14:10:34.507Z,5.80
2022-11-04T14:13:21.723Z,8.20
2022-11-04T14:16:02.366Z,7.10
2022-11-04T14:21:07.357Z,7.62
2022-11-04T14:23:35.696Z,5.05
2022-11-04T14:26:04.068Z,7.40
2022-11-04T14:28:32.437Z,6.65
2022-11-04T14:31:00.993Z,6.75
2022-11-04T14:36:16.302Z,7.65
2022-11-04T14:38:44.670Z,8.83
2022-11-04T14:41:14.180Z,7.40
2022-11-04T14:43:43.140Z,5.53
2022-11-04T14:46:11.617Z,7.72
2022-11-04T14:48:42.187Z,7.65
2022-11-04T14:51:10.929Z,5.05
2022-11-04T14:56:21.986Z,6.53
2022-11-04T14:58:54.770Z,6.72
2022-11-04T15:01:23.703Z,5.83
2022-11-04T15:04:11.328Z,7.62
2022-11-04T15:09:00.186Z,8.23
2022-11-04T15:11:46.406Z,7.47
2022-11-04T15:16:50.834Z,5.87
2022-11-04T15:19:19.977Z,7.58
2022-11-04T15:24:23.908Z,7.10
2022-11-04T15:26:52.212Z,8.18
2022-11-04T15:29:20.554Z,7.58
2022-11-04T15:31:55.203Z,7.45
2022-11-04T15:36:50.609Z,6.90
2022-11-04T15:42:13.000Z,7.33
2022-11-04T15:44:41.353Z,8.40
2022-11-04T15:47:21.835Z,7.97
2022-11-04T15:49:50.204Z,9.20
2022-11-04T15:52:18.535Z,7.25
2022-11-04T15:54:47.089Z,7.10
2022-11-04T15:59:54.116Z,7.45
2022-11-04T16:02:21.847Z,11.55
2022-11-04T16:05:02.693Z,10.30
2022-11-04T16:07:31.642Z,7.20
2022-11-04T16:10:02.884Z,8.98
2022-11-04T16:12:31.383Z,6.12
2022-11-04T16:14:57.163Z,5.95
2022-11-04T16:17:25.505Z,8.43
2022-11-04T16:19:53.863Z,7.42
2022-11-04T16:22:22.800Z,7.70
2022-11-04T16:24:51.173Z,8.33
2022-11-04T16:27:19.530Z,7.30
2022-11-04T16:29:52.636Z,12.43
2022-11-04T16:32:21.001Z,15.63
2022-11-04T16:34:49.546Z,10.38
2022-11-04T16:37:18.402Z,8.20
2022-11-04T16:39:46.721Z,12.28
2022-11-04T16:42:15.230Z,12.73
2022-11-04T16:44:47.104Z,10.65
2022-11-04T16:47:15.519Z,10.75
2022-11-04T16:49:43.882Z,9.28
2022-11-04T16:52:12.947Z,13.05
2022-11-04T16:57:16.900Z,13.08
2022-11-04T16:59:45.278Z,14.60
2022-11-04T17:02:18.117Z,16.85
2022-11-04T17:04:46.310Z,11.15
2022-11-04T17:07:14.704Z,10.93
2022-11-04T17:09:43.098Z,11.00
2022-11-04T17:12:11.488Z,10.50
2022-11-04T17:14:39.919Z,8.50
2022-11-04T17:17:08.263Z,10.60
2022-11-04T17:19:36.619Z,8.80
2022-11-04T17:22:09.248Z,9.48
2022-11-04T17:24:36.052Z,8.25
2022-11-04T17:27:04.473Z,8.65
2022-11-04T17:29:32.879Z,9.65
2022-11-04T17:32:01.252Z,8.93
2022-11-04T17:34:29.632Z,11.35
2022-11-04T17:36:58.034Z,8.93
2022-11-04T17:39:28.688Z,11.22
2022-11-04T17:42:22.777Z,11.18
2022-11-04T17:44:53.614Z,17.17
2022-11-04T17:47:19.525Z,10.48
2022-11-04T17:49:47.896Z,13.10
2022-11-04T17:52:16.319Z,15.78
2022-11-04T17:57:20.287Z,11.43
2022-11-04T17:59:48.662Z,11.45
2022-11-04T18:02:17.164Z,12.47
2022-11-04T18:04:46.382Z,10.30
2022-11-04T18:07:14.749Z,11.75
2022-11-04T18:09:43.130Z,10.32
2022-11-04T18:12:42.848Z,12.00
2022-11-04T18:15:11.570Z,11.93
2022-11-04T18:17:39.973Z,8.90
2022-11-04T18:20:13.356Z,12.78
2022-11-04T18:22:37.809Z,12.33
2022-11-04T18:25:07.310Z,11.55
2022-11-04T18:27:35.585Z,12.65
2022-11-04T18:30:05.718Z,14.85
2022-11-04T18:32:32.519Z,11.08
2022-11-04T18:35:00.901Z,12.25
2022-11-04T18:37:29.390Z,10.65
2022-11-04T18:39:57.792Z,13.05
2022-11-04T18:42:27.824Z,12.53
2022-11-04T18:44:54.591Z,12.18
2022-11-04T18:47:24.054Z,11.60
2022-11-04T18:49:51.365Z,10.23
2022-11-04T18:52:19.790Z,10.68
2022-11-04T18:57:23.738Z,12.43
2022-11-04T18:59:52.108Z,11.00
2022-11-04T19:02:23.569Z,12.90
2022-11-04T19:04:49.377Z,11.10
2022-11-04T19:07:17.812Z,11.10
2022-11-04T19:09:47.757Z,11.97
2022-11-04T19:12:34.955Z,12.07
2022-11-04T19:15:01.166Z,12.85
2022-11-04T19:17:29.968Z,12.33
2022-11-04T19:19:58.611Z,14.87
2022-11-04T19:25:04.273Z,11.83
2022-11-04T19:30:07.609Z,12.60
2022-11-04T19:32:35.993Z,12.47
2022-11-04T19:35:04.493Z,13.08
2022-11-04T19:37:32.884Z,13.65
2022-11-04T19:40:03.732Z,11.03
2022-11-04T19:42:47.516Z,12.33
2022-11-04T19:45:16.200Z,15.83
2022-11-04T19:47:44.704Z,14.95
2022-11-04T19:52:48.831Z,14.00
2022-11-04T19:57:56.493Z,13.72
2022-11-04T20:00:24.974Z,13.88
2022-11-04T20:02:54.975Z,14.28
2022-11-04T20:08:05.822Z,15.68
2022-11-04T20:10:29.498Z,12.18
2022-11-04T20:13:15.946Z,12.45
2022-11-04T20:15:44.350Z,14.20
2022-11-04T20:20:48.517Z,12.47
2022-11-04T20:23:16.847Z,12.68
2022-11-04T20:25:46.946Z,13.58
2022-11-04T20:28:13.858Z,13.05
2022-11-04T20:30:42.089Z,13.32
2022-11-04T20:33:10.566Z,11.25
2022-11-04T20:35:38.923Z,11.15
2022-11-04T20:38:07.914Z,12.95
2022-11-04T20:40:37.871Z,12.58
2022-11-04T20:43:06.332Z,10.38
2022-11-04T20:45:33.087Z,11.48
2022-11-04T20:50:37.311Z,11.38
2022-11-04T20:53:06.057Z,12.43
2022-11-04T20:58:10.384Z,15.55
2022-11-04T21:00:38.583Z,15.53
2022-11-04T21:03:07.070Z,12.75
2022-11-04T21:05:35.808Z,16.07
2022-11-04T21:08:04.262Z,16.60
2022-11-04T21:10:32.641Z,15.95
2022-11-04T21:13:01.037Z,16.87
2022-11-04T21:15:41.621Z,18.85
2022-11-04T21:18:10.371Z,16.90
2022-11-04T21:20:39.473Z,18.02
2022-11-04T21:23:10.409Z,19.70
2022-11-04T21:25:40.131Z,18.00
2022-11-04T21:28:08.868Z,18.23
2022-11-04T21:30:39.592Z,17.37
2022-11-04T21:33:07.961Z,15.25
2022-11-04T21:35:36.375Z,20.72
2022-11-04T21:38:04.822Z,18.20
2022-11-04T21:40:33.158Z,17.20
2022-11-04T21:43:01.579Z,16.55
2022-11-04T21:45:29.976Z,16.02
2022-11-04T21:47:58.326Z,16.20
2022-11-04T21:50:28.406Z,18.57
2022-11-04T21:52:55.408Z,18.85
2022-11-04T21:58:01.894Z,16.37
2022-11-04T22:00:28.680Z,18.25
2022-11-04T22:02:57.113Z,17.23
2022-11-04T22:05:25.418Z,15.68
2022-11-04T22:08:11.803Z,15.68
2022-11-04T22:10:42.548Z,16.02
2022-11-04T22:13:09.430Z,15.25
2022-11-04T22:15:55.777Z,15.25
2022-11-04T22:18:24.145Z,16.30
2022-11-04T22:20:52.731Z,14.45
2022-11-04T22:23:21.109Z,16.17
2022-11-04T22:25:50.426Z,16.02
2022-11-04T22:28:17.863Z,24.15
2022-11-04T22:30:46.325Z,18.00
2022-11-04T22:33:14.712Z,16.48
2022-11-04T22:35:46.266Z,15.30
2022-11-04T22:38:14.704Z,13.72
2022-11-04T22:40:43.048Z,14.93
2022-11-04T22:43:11.704Z,15.25
2022-11-04T22:45:39.761Z,13.85
2022-11-04T22:48:08.120Z,16.80
2022-11-04T22:50:36.494Z,16.73
2022-11-04T22:53:04.863Z,17.07
2022-11-04T22:58:11.550Z,16.27
2022-11-04T23:00:37.529Z,14.65
2022-11-04T23:03:06.063Z,16.42
2022-11-04T23:08:09.951Z,16.10
2022-11-04T23:10:56.263Z,14.30
2022-11-04T23:13:43.805Z,17.70
2022-11-04T23:16:30.595Z,14.07
2022-11-04T23:19:00.812Z,17.35
2022-11-04T23:21:47.285Z,12.93
2022-11-04T23:24:33.717Z,15.38
2022-11-04T23:27:02.120Z,12.68
2022-11-04T23:29:48.352Z,16.00
2022-11-04T23:32:16.715Z,13.95
2022-11-04T23:35:03.178Z,16.10
2022-11-04T23:37:31.543Z,13.25
2022-11-04T23:39:59.904Z,19.20
2022-11-04T23:42:28.249Z,16.00
2022-11-04T23:45:14.471Z,18.82
2022-11-04T23:48:00.680Z,12.23
2022-11-04T23:50:46.944Z,20.77
2022-11-04T23:53:33.102Z,17.05
2022-11-04T23:58:54.851Z,14.78
